createdAt,value
2022-08-08T00:01:06.684Z,19.83
2022-08-08T00:03:48.516Z,19.82
2022-08-08T00:06:50.034Z,19.98
2022-08-08T00:09:17.206Z,19.88
2022-08-08T00:12:07.063Z,19.82
2022-08-08T00:15:03.250Z,19.90
2022-08-08T00:18:02.459Z,19.89
2022-08-08T00:20:55.226Z,19.84
2022-08-08T00:23:43.165Z,19.85
2022-08-08T00:26:30.098Z,19.79
2022-08-08T00:29:17.526Z,19.64
2022-08-08T00:32:36.746Z,19.66
2022-08-08T00:35:34.225Z,19.57
2022-08-08T00:38:31.130Z,19.71
2022-08-08T00:41:14.398Z,19.72
2022-08-08T00:44:07.333Z,19.74
2022-08-08T00:46:58.299Z,19.79
2022-08-08T00:49:59.271Z,19.75
2022-08-08T00:53:15.668Z,19.68
2022-08-08T00:56:03.264Z,19.63
2022-08-08T00:58:34.618Z,19.66
2022-08-08T01:01:36.436Z,19.59
2022-08-08T01:04:53.599Z,19.61
2022-08-08T01:07:57.771Z,19.47
2022-08-08T01:11:21.918Z,19.46
2022-08-08T01:14:54.433Z,19.46
2022-08-08T01:17:19.539Z,19.44
2022-08-08T01:20:17.310Z,19.50
2022-08-08T01:24:02.742Z,19.54
2022-08-08T01:26:28.730Z,19.53
2022-08-08T01:29:13.459Z,19.51
2022-08-08T01:32:13.851Z,19.55
2022-08-08T01:34:58.424Z,19.52
2022-08-08T01:37:37.234Z,19.50
2022-08-08T01:40:17.417Z,19.45
2022-08-08T01:42:58.984Z,19.37
2022-08-08T01:45:56.179Z,19.50
2022-08-08T01:48:53.635Z,19.41
2022-08-08T01:53:07.212Z,19.46
2022-08-08T01:56:26.894Z,19.44
2022-08-08T01:58:32.243Z,19.36
2022-08-08T02:01:24.381Z,19.36
2022-08-08T02:04:12.846Z,19.31
2022-08-08T02:07:21.434Z,19.24
2022-08-08T02:10:11.435Z,19.19
2022-08-08T02:12:56.058Z,19.20
2022-08-08T02:15:39.038Z,19.20
2022-08-08T02:18:13.974Z,19.24
2022-08-08T02:21:28.574Z,19.19
2022-08-08T02:23:59.867Z,19.18
2022-08-08T02:26:34.057Z,19.13
2022-08-08T02:29:19.049Z,19.17
2022-08-08T02:32:23.063Z,19.19
2022-08-08T02:35:10.722Z,19.15
2022-08-08T02:38:25.605Z,19.12
2022-08-08T02:41:58.470Z,19.08
2022-08-08T02:44:56.348Z,19.13
2022-08-08T02:47:59.650Z,19.11
2022-08-08T02:51:04.842Z,19.06
2022-08-08T02:54:10.871Z,19.07
2022-08-08T02:57:29.370Z,19.01
2022-08-08T03:00:31.772Z,19.17
2022-08-08T03:03:46.366Z,19.28
2022-08-08T03:06:34.525Z,19.29
2022-08-08T03:09:21.517Z,19.24
2022-08-08T03:12:14.061Z,19.24
2022-08-08T03:15:59.845Z,19.26
2022-08-08T03:18:39.247Z,19.26
2022-08-08T03:21:10.130Z,19.36
2022-08-08T03:23:59.259Z,19.43
2022-08-08T03:26:42.720Z,19.43
2022-08-08T03:29:26.910Z,19.02
2022-08-08T03:32:29.088Z,19.56
2022-08-08T03:34:59.223Z,19.46
2022-08-08T03:37:59.990Z,19.50
2022-08-08T03:40:29.689Z,19.60
2022-08-08T03:43:16.165Z,19.64
2022-08-08T03:46:06.977Z,19.71
2022-08-08T03:49:09.434Z,19.73
2022-08-08T03:51:40.251Z,19.80
2022-08-08T03:54:10.107Z,19.83
2022-08-08T03:56:46.440Z,19.90
2022-08-08T03:59:22.713Z,19.92
2022-08-08T04:02:31.739Z,19.90
2022-08-08T04:04:39.971Z,19.99
2022-08-08T04:07:09.689Z,20.00
2022-08-08T04:09:58.820Z,20.07
2022-08-08T04:12:26.518Z,20.14
2022-08-08T04:14:54.725Z,20.23
2022-08-08T04:17:57.821Z,20.35
2022-08-08T04:20:11.241Z,20.41
2022-08-08T04:22:39.098Z,20.54
2022-08-08T04:25:09.057Z,20.69
2022-08-08T04:28:34.965Z,20.73
2022-08-08T04:30:36.716Z,20.80
2022-08-08T04:33:15.684Z,20.85
2022-08-08T04:35:43.918Z,20.90
2022-08-08T04:38:21.467Z,21.03
2022-08-08T04:40:54.143Z,21.20
2022-08-08T04:43:31.710Z,21.17
2022-08-08T04:46:14.755Z,21.26
2022-08-08T04:48:43.895Z,21.36
2022-08-08T04:51:12.115Z,21.48
2022-08-08T04:54:26.751Z,21.52
2022-08-08T04:56:32.490Z,21.64
2022-08-08T04:59:02.181Z,21.81
2022-08-08T05:01:35.587Z,21.85
2022-08-08T05:04:16.462Z,22.02
2022-08-08T05:06:45.706Z,21.91
2022-08-08T05:09:13.202Z,22.09
2022-08-08T05:11:47.772Z,22.19
2022-08-08T05:14:25.414Z,22.21
2022-08-08T05:17:01.146Z,22.27
2022-08-08T05:20:10.531Z,22.22
2022-08-08T05:22:31.793Z,22.21
2022-08-08T05:25:00.948Z,22.36
2022-08-08T05:27:33.125Z,22.50
2022-08-08T05:30:03.643Z,22.65
2022-08-08T05:32:53.649Z,22.45
2022-08-08T05:35:26.498Z,22.59
2022-08-08T05:38:31.459Z,22.55
2022-08-08T05:40:59.069Z,22.61
2022-08-08T05:44:02.939Z,22.66
2022-08-08T05:46:24.439Z,22.75
2022-08-08T05:48:54.734Z,22.82
2022-08-08T05:51:26.309Z,22.90
2022-08-08T05:54:28.775Z,22.96
2022-08-08T05:56:47.288Z,22.92
2022-08-08T06:00:01.248Z,23.00
2022-08-08T06:02:40.792Z,23.08
2022-08-08T06:05:34.691Z,23.14
2022-08-08T06:08:09.611Z,23.12
2022-08-08T06:10:41.143Z,23.35
2022-08-08T06:13:12.426Z,23.43
2022-08-08T06:15:50.602Z,23.55
2022-08-08T06:18:25.967Z,23.62
2022-08-08T06:20:56.584Z,23.81
2022-08-08T06:23:48.547Z,23.95
2022-08-08T06:26:38.855Z,23.99
2022-08-08T06:29:26.779Z,23.99
2022-08-08T06:32:09.882Z,24.11
2022-08-08T06:34:39.786Z,23.96
2022-08-08T06:37:24.264Z,24.33
2022-08-08T06:40:00.700Z,24.33
2022-08-08T06:42:38.155Z,24.47
2022-08-08T06:45:07.888Z,24.46
2022-08-08T06:47:52.657Z,24.67
2022-08-08T06:50:31.417Z,24.86
2022-08-08T06:53:09.453Z,24.89
2022-08-08T06:55:41.697Z,24.81
2022-08-08T06:58:11.164Z,24.92
2022-08-08T07:00:43.295Z,25.00
2022-08-08T07:04:35.708Z,25.10
2022-08-08T07:06:17.336Z,25.22
2022-08-08T07:08:47.667Z,25.11
2022-08-08T07:11:46.115Z,25.20
2022-08-08T07:14:21.580Z,25.28
2022-08-08T07:16:58.595Z,25.34
2022-08-08T07:19:44.666Z,25.36
2022-08-08T07:22:19.287Z,25.07
2022-08-08T07:25:02.459Z,25.54
2022-08-08T07:28:01.737Z,25.47
2022-08-08T07:30:33.566Z,25.42
2022-08-08T07:33:01.543Z,25.65
2022-08-08T07:35:35.584Z,25.79
2022-08-08T07:38:18.407Z,25.73
2022-08-08T07:40:59.955Z,25.82
2022-08-08T07:43:37.177Z,25.98
2022-08-08T07:46:23.960Z,26.11
2022-08-08T07:49:01.129Z,26.35
2022-08-08T07:51:44.913Z,26.42
2022-08-08T07:54:33.379Z,26.62
2022-08-08T07:57:11.542Z,26.79
2022-08-08T08:00:01.759Z,26.90
2022-08-08T08:02:55.623Z,26.99
2022-08-08T08:05:33.671Z,26.98
2022-08-08T08:08:20.620Z,26.97
2022-08-08T08:10:55.366Z,26.90
2022-08-08T08:14:06.042Z,27.03
2022-08-08T08:16:26.798Z,27.00
2022-08-08T08:19:02.824Z,27.15
2022-08-08T08:21:52.487Z,27.21
2022-08-08T08:24:36.665Z,27.25
2022-08-08T08:27:08.403Z,27.29
2022-08-08T08:29:39.090Z,27.41
2022-08-08T08:32:09.114Z,27.36
2022-08-08T08:34:43.469Z,27.45
2022-08-08T08:37:20.430Z,27.36
2022-08-08T08:40:01.087Z,27.35
2022-08-08T08:42:36.275Z,27.19
2022-08-08T08:45:10.126Z,27.52
2022-08-08T08:47:54.453Z,27.64
2022-08-08T08:50:33.440Z,27.67
2022-08-08T08:53:28.370Z,27.76
2022-08-08T08:56:02.793Z,27.97
2022-08-08T08:58:37.975Z,28.02
2022-08-08T09:01:10.131Z,28.13
2022-08-08T09:03:45.946Z,28.07
2022-08-08T09:06:33.203Z,28.13
2022-08-08T09:09:26.230Z,28.14
2022-08-08T09:12:19.990Z,28.26
2022-08-08T09:14:51.644Z,28.42
2022-08-08T09:17:41.213Z,28.52
2022-08-08T09:21:56.001Z,28.58
2022-08-08T09:23:04.931Z,28.68
2022-08-08T09:26:00.729Z,28.63
2022-08-08T09:28:37.929Z,28.61
2022-08-08T09:31:56.035Z,28.77
2022-08-08T09:34:34.709Z,28.89
2022-08-08T09:37:58.370Z,28.96
2022-08-08T09:40:11.423Z,28.99
2022-08-08T09:42:51.905Z,28.97
2022-08-08T09:45:54.676Z,29.14
2022-08-08T09:48:38.895Z,29.19
2022-08-08T09:51:10.132Z,29.29
2022-08-08T09:53:56.540Z,29.19
2022-08-08T09:56:40.079Z,29.37
2022-08-08T09:59:42.682Z,29.43
2022-08-08T10:02:12.370Z,29.45
2022-08-08T10:04:47.267Z,29.41
2022-08-08T10:07:17.347Z,29.36
2022-08-08T10:09:59.798Z,29.57
2022-08-08T10:12:53.060Z,29.77
2022-08-08T10:15:27.035Z,29.74
2022-08-08T10:18:07.503Z,29.87
2022-08-08T10:20:57.912Z,29.93
2022-08-08T10:23:44.166Z,29.95
2022-08-08T10:26:40.567Z,30.08
2022-08-08T10:29:22.819Z,30.13
2022-08-08T10:32:16.419Z,30.17
2022-08-08T10:34:58.561Z,30.26
2022-08-08T10:37:35.448Z,30.41
2022-08-08T10:40:16.288Z,30.47
2022-08-08T10:42:45.746Z,30.52
2022-08-08T10:45:16.106Z,30.51
2022-08-08T10:47:55.478Z,30.64
2022-08-08T10:50:32.130Z,30.69
2022-08-08T10:53:12.491Z,30.63
2022-08-08T10:55:46.420Z,30.70
2022-08-08T10:58:15.656Z,30.89
2022-08-08T11:00:53.507Z,30.93
2022-08-08T11:04:00.810Z,31.04
2022-08-08T11:06:35.400Z,30.97
2022-08-08T11:09:19.925Z,31.18
2022-08-08T11:12:05.702Z,31.16
2022-08-08T11:14:57.327Z,31.33
2022-08-08T11:17:59.741Z,31.46
2022-08-08T11:20:25.050Z,31.55
2022-08-08T11:23:05.227Z,31.59
2022-08-08T11:25:53.256Z,31.71
2022-08-08T11:28:29.501Z,31.71
2022-08-08T11:31:01.026Z,31.89
2022-08-08T11:33:52.775Z,31.47
2022-08-08T11:36:27.917Z,31.98
2022-08-08T11:38:56.665Z,32.10
2022-08-08T11:41:28.069Z,32.08
2022-08-08T11:44:00.951Z,32.14
2022-08-08T11:46:31.515Z,32.11
2022-08-08T11:49:05.143Z,31.98
2022-08-08T11:51:38.333Z,31.80
2022-08-08T11:54:27.342Z,31.73
2022-08-08T11:57:13.844Z,31.59
2022-08-08T12:00:02.261Z,31.60
2022-08-08T12:02:52.207Z,31.88
2022-08-08T12:05:30.805Z,32.01
2022-08-08T12:08:01.924Z,32.16
2022-08-08T12:10:33.613Z,32.56
2022-08-08T12:13:05.104Z,32.71
2022-08-08T12:15:51.654Z,32.55
2022-08-08T12:18:27.812Z,32.35
2022-08-08T12:20:59.457Z,32.48
2022-08-08T12:23:43.879Z,32.59
2022-08-08T12:26:28.567Z,32.72
2022-08-08T12:29:22.119Z,32.69
2022-08-08T12:32:05.403Z,32.80
2022-08-08T12:34:42.997Z,32.97
2022-08-08T12:37:18.811Z,33.03
2022-08-08T12:40:00.387Z,32.89
2022-08-08T12:42:33.610Z,32.87
2022-08-08T12:45:59.228Z,32.94
2022-08-08T12:48:09.726Z,33.13
2022-08-08T12:50:57.577Z,32.88
2022-08-08T12:53:37.750Z,32.91
2022-08-08T12:56:19.796Z,32.92
2022-08-08T12:58:54.441Z,32.92
2022-08-08T13:01:36.920Z,33.07
2022-08-08T13:04:18.296Z,33.18
2022-08-08T13:07:00.619Z,33.19
2022-08-08T13:09:43.075Z,33.21
2022-08-08T13:12:29.530Z,33.35
2022-08-08T13:15:00.779Z,33.06
2022-08-08T13:18:09.284Z,32.99
2022-08-08T13:20:20.996Z,33.08
2022-08-08T13:22:48.678Z,33.04
2022-08-08T13:25:22.097Z,32.77
2022-08-08T13:27:54.465Z,32.66
2022-08-08T13:30:26.766Z,32.76
2022-08-08T13:32:57.770Z,32.73
2022-08-08T13:35:38.696Z,33.07
2022-08-08T13:38:13.374Z,33.19
2022-08-08T13:40:44.996Z,33.34
2022-08-08T13:43:16.050Z,33.38
2022-08-08T13:45:47.587Z,33.24
2022-08-08T13:48:19.737Z,33.32
2022-08-08T13:50:57.566Z,33.24
2022-08-08T13:53:53.242Z,33.47
2022-08-08T13:56:44.525Z,33.62
2022-08-08T13:59:12.585Z,33.70
2022-08-08T14:01:56.734Z,33.62
2022-08-08T14:04:27.643Z,33.60
2022-08-08T14:07:04.187Z,33.42
2022-08-08T14:10:04.808Z,33.37
2022-08-08T14:12:30.585Z,33.44
2022-08-08T14:14:58.899Z,33.60
2022-08-08T14:17:59.329Z,33.70
2022-08-08T14:20:14.846Z,33.91
2022-08-08T14:23:10.257Z,34.00
2022-08-08T14:25:56.666Z,33.96
2022-08-08T14:28:28.994Z,34.06
2022-08-08T14:31:09.351Z,33.85
2022-08-08T14:33:37.361Z,33.82
2022-08-08T14:36:06.169Z,33.78
2022-08-08T14:38:52.801Z,33.92
2022-08-08T14:41:53.141Z,33.91
2022-08-08T14:44:21.026Z,33.67
2022-08-08T14:47:00.275Z,33.49
2022-08-08T14:49:51.445Z,33.33
2022-08-08T14:52:23.181Z,33.46
2022-08-08T14:54:50.783Z,33.62
2022-08-08T14:57:17.884Z,33.75
2022-08-08T14:59:51.515Z,33.85
2022-08-08T15:02:25.338Z,33.90
2022-08-08T15:04:53.230Z,33.95
2022-08-08T15:07:22.548Z,33.82
2022-08-08T15:09:52.981Z,33.94
2022-08-08T15:12:27.136Z,34.02
2022-08-08T15:14:55.607Z,33.80
2022-08-08T15:17:23.382Z,33.64
2022-08-08T15:19:51.685Z,33.46
2022-08-08T15:22:23.538Z,33.27
2022-08-08T15:24:52.132Z,32.96
2022-08-08T15:27:57.751Z,32.86
2022-08-08T15:30:12.386Z,32.81
2022-08-08T15:32:43.344Z,32.74
2022-08-08T15:35:11.604Z,32.71
2022-08-08T15:37:43.635Z,32.56
2022-08-08T15:40:15.294Z,32.44
2022-08-08T15:42:47.375Z,32.33
2022-08-08T15:45:14.814Z,32.33
2022-08-08T15:48:05.469Z,32.25
2022-08-08T15:50:52.363Z,32.13
2022-08-08T15:53:20.922Z,32.09
2022-08-08T15:55:50.382Z,31.98
2022-08-08T15:58:20.403Z,31.99
2022-08-08T16:00:58.783Z,31.93
2022-08-08T16:03:26.134Z,31.86
2022-08-08T16:06:01.594Z,31.79
2022-08-08T16:08:29.819Z,31.78
2022-08-08T16:13:02.254Z,31.73
2022-08-08T16:13:49.324Z,31.53
2022-08-08T16:16:22.149Z,31.48
2022-08-08T16:18:56.910Z,31.36
2022-08-08T16:21:31.477Z,31.31
2022-08-08T16:24:06.736Z,31.28
2022-08-08T16:26:40.053Z,31.12
2022-08-08T16:29:15.468Z,31.21
2022-08-08T16:31:49.490Z,31.13
2022-08-08T16:34:20.782Z,31.11
2022-08-08T16:36:50.304Z,30.92
2022-08-08T16:40:00.758Z,30.86
2022-08-08T16:42:06.696Z,30.81
2022-08-08T16:44:41.487Z,30.75
2022-08-08T16:47:40.608Z,30.76
2022-08-08T16:50:14.775Z,30.60
2022-08-08T16:55:00.525Z,30.53
2022-08-08T16:55:53.745Z,30.53
2022-08-08T16:58:25.723Z,30.50
2022-08-08T17:00:55.121Z,30.40
2022-08-08T17:03:24.731Z,30.41
2022-08-08T17:06:02.814Z,30.38
2022-08-08T17:08:30.180Z,30.35
2022-08-08T17:11:10.180Z,30.29
2022-08-08T17:13:49.919Z,30.26
2022-08-08T17:16:26.554Z,30.28
2022-08-08T17:18:58.457Z,30.22
2022-08-08T17:21:41.397Z,30.12
2022-08-08T17:24:21.993Z,30.05
2022-08-08T17:26:57.755Z,29.96
2022-08-08T17:29:33.643Z,29.87
2022-08-08T17:32:02.995Z,29.83
2022-08-08T17:34:54.460Z,29.70
2022-08-08T17:37:23.078Z,29.65
2022-08-08T17:40:10.986Z,29.66
2022-08-08T17:42:41.201Z,29.63
2022-08-08T17:45:22.117Z,29.56
2022-08-08T17:47:51.614Z,29.36
2022-08-08T17:50:18.772Z,29.46
2022-08-08T17:52:47.843Z,29.34
2022-08-08T17:56:04.662Z,29.36
2022-08-08T17:58:03.171Z,29.31
2022-08-08T18:00:31.382Z,29.25
2022-08-08T18:03:08.019Z,29.21
2022-08-08T18:05:48.443Z,29.15
2022-08-08T18:08:24.838Z,29.14
2022-08-08T18:11:09.236Z,29.07
2022-08-08T18:13:41.452Z,29.00
2022-08-08T18:16:10.482Z,28.94
2022-08-08T18:18:42.858Z,28.91
2022-08-08T18:21:35.317Z,28.83
2022-08-08T18:24:01.752Z,28.88
2022-08-08T18:26:29.613Z,28.82
2022-08-08T18:28:57.738Z,28.78
2022-08-08T18:31:27.698Z,28.70
2022-08-08T18:34:25.769Z,28.64
2022-08-08T18:36:44.298Z,28.61
2022-08-08T18:39:16.325Z,28.56
2022-08-08T18:41:51.390Z,28.55
2022-08-08T18:44:28.865Z,28.52
2022-08-08T18:46:57.967Z,28.43
2022-08-08T18:49:32.291Z,28.46
2022-08-08T18:52:22.222Z,28.32
2022-08-08T18:55:00.258Z,28.27
2022-08-08T18:57:44.678Z,28.19
2022-08-08T19:00:20.783Z,28.18
2022-08-08T19:02:55.205Z,28.12
2022-08-08T19:05:32.421Z,27.99
2022-08-08T19:08:25.547Z,27.97
2022-08-08T19:10:58.777Z,27.88
2022-08-08T19:13:52.949Z,27.81
2022-08-08T19:16:19.269Z,27.75
2022-08-08T19:19:01.950Z,27.73
2022-08-08T19:21:32.992Z,27.62
2022-08-08T19:24:05.825Z,27.53
2022-08-08T19:26:35.566Z,27.48
2022-08-08T19:29:06.855Z,27.53
2022-08-08T19:31:35.196Z,27.44
2022-08-08T19:34:36.510Z,27.31
2022-08-08T19:36:55.463Z,27.18
2022-08-08T19:39:34.826Z,27.08
2022-08-08T19:42:04.695Z,26.97
2022-08-08T19:44:45.393Z,26.90
2022-08-08T19:47:15.826Z,26.79
2022-08-08T19:50:00.424Z,26.75
2022-08-08T19:52:36.658Z,26.60
2022-08-08T19:55:11.459Z,26.57
2022-08-08T19:57:45.380Z,26.55
2022-08-08T20:00:29.244Z,26.48
2022-08-08T20:03:01.931Z,26.44
2022-08-08T20:06:14.086Z,26.34
2022-08-08T20:08:40.105Z,26.47
2022-08-08T20:11:12.072Z,26.32
2022-08-08T20:14:31.855Z,26.30
2022-08-08T20:16:29.551Z,26.22
2022-08-08T20:18:58.099Z,26.08
2022-08-08T20:21:26.338Z,26.01
2022-08-08T20:23:58.097Z,25.88
2022-08-08T20:26:33.594Z,25.80
2022-08-08T20:29:04.345Z,25.78
2022-08-08T20:32:07.216Z,25.66
2022-08-08T20:34:30.308Z,25.52
2022-08-08T20:37:00.919Z,25.43
2022-08-08T20:39:39.441Z,25.35
2022-08-08T20:42:28.629Z,25.27
2022-08-08T20:44:58.121Z,25.17
2022-08-08T20:47:26.087Z,24.98
2022-08-08T20:49:54.567Z,24.85
2022-08-08T20:52:27.976Z,24.75
2022-08-08T20:54:57.223Z,24.65
2022-08-08T20:57:26.937Z,24.57
2022-08-08T20:59:56.190Z,24.54
2022-08-08T21:02:26.019Z,24.54
2022-08-08T21:05:00.788Z,24.43
2022-08-08T21:08:07.788Z,24.33
2022-08-08T21:10:20.924Z,24.14
2022-08-08T21:12:54.526Z,24.05
2022-08-08T21:16:05.372Z,24.12
2022-08-08T21:18:11.642Z,23.92
2022-08-08T21:20:42.041Z,23.83
2022-08-08T21:23:13.064Z,23.85
2022-08-08T21:25:45.853Z,23.73
2022-08-08T21:28:19.334Z,23.63
2022-08-08T21:31:21.903Z,23.63
2022-08-08T21:33:48.366Z,23.61
2022-08-08T21:36:28.851Z,23.59
2022-08-08T21:38:58.137Z,23.59
2022-08-08T21:41:38.185Z,23.55
2022-08-08T21:44:11.578Z,23.49
2022-08-08T21:48:04.713Z,23.45
2022-08-08T21:49:29.996Z,23.43
2022-08-08T21:54:20.237Z,23.36
2022-08-08T21:55:02.423Z,23.17
2022-08-08T21:57:43.063Z,23.03
2022-08-08T22:00:25.851Z,22.91
2022-08-08T22:02:53.771Z,22.82
2022-08-08T22:05:21.429Z,22.74
2022-08-08T22:07:49.196Z,22.70
2022-08-08T22:10:32.395Z,22.67
2022-08-08T22:13:18.603Z,22.67
2022-08-08T22:15:59.721Z,22.61
2022-08-08T22:18:33.493Z,22.48
2022-08-08T22:21:14.424Z,22.56
2022-08-08T22:23:50.493Z,22.22
2022-08-08T22:26:29.681Z,22.38
2022-08-08T22:29:13.589Z,22.28
2022-08-08T22:31:58.407Z,22.22
2022-08-08T22:34:32.226Z,22.16
2022-08-08T22:37:00.455Z,22.12
2022-08-08T22:39:45.552Z,22.10
2022-08-08T22:42:27.019Z,22.12
2022-08-08T22:44:55.689Z,22.02
2022-08-08T22:47:23.665Z,22.11
2022-08-08T22:50:02.872Z,22.09
2022-08-08T22:52:33.337Z,22.28
2022-08-08T22:55:04.799Z,22.38
2022-08-08T22:57:44.092Z,22.47
2022-08-08T23:00:18.065Z,22.56
2022-08-08T23:02:50.177Z,22.54
2022-08-08T23:05:21.561Z,22.55
2022-08-08T23:07:57.780Z,22.50
2022-08-08T23:10:27.626Z,22.44
2022-08-08T23:12:55.169Z,22.30
2022-08-08T23:16:38.762Z,22.24
2022-08-08T23:18:12.526Z,22.05
2022-08-08T23:20:44.258Z,22.12
2022-08-08T23:23:12.497Z,22.20
2022-08-08T23:25:48.538Z,22.17
2022-08-08T23:28:18.648Z,22.08
2022-08-08T23:30:47.433Z,22.10
2022-08-08T23:33:19.238Z,22.19
2022-08-08T23:36:07.921Z,22.14
2022-08-08T23:38:36.731Z,22.18
2022-08-08T23:41:17.398Z,22.21
2022-08-08T23:43:56.626Z,22.06
2022-08-08T23:49:01.122Z,21.97
2022-08-08T23:49:18.073Z,21.88
2022-08-08T23:52:07.236Z,21.75
2022-08-08T23:54:41.978Z,21.87
2022-08-08T23:57:26.345Z,21.61
